createdAt,value
2017-08-14T00:03:11.435Z,25.5
2017-08-14T00:08:16.843Z,25.5
2017-08-14T00:13:22.578Z,25.5
2017-08-14T00:18:27.981Z,25.5
2017-08-14T00:23:34.058Z,25.5
2017-08-14T00:28:39.126Z,25.4
2017-08-14T00:33:44.528Z,25.4
2017-08-14T00:38:50.266Z,25.4
2017-08-14T00:43:56.352Z,25.4
2017-08-14T00:49:02.087Z,25.4
2017-08-14T00:54:07.826Z,25.4
2017-08-14T00:59:13.235Z,25.4
2017-08-14T01:04:18.646Z,25.4
2017-08-14T01:09:24.046Z,25.4
2017-08-14T01:14:29.442Z,25.3
2017-08-14T01:19:35.515Z,25.3
2017-08-14T01:24:40.912Z,25.3
2017-08-14T01:29:46.336Z,25.3
2017-08-14T01:34:51.717Z,25.3
2017-08-14T01:39:56.788Z,25.3
2017-08-14T01:45:02.857Z,25.3
2017-08-14T01:50:08.593Z,25.3
2017-08-14T01:55:14.663Z,25.3
2017-08-14T02:00:20.738Z,25.3
2017-08-14T02:05:26.136Z,25.3
2017-08-14T02:10:31.210Z,25.2
2017-08-14T02:15:36.612Z,25.2
2017-08-14T02:20:41.685Z,25.2
2017-08-14T02:25:47.081Z,25.2
2017-08-14T02:30:52.146Z,25.2
2017-08-14T02:35:57.543Z,25.2
2017-08-14T02:41:03.612Z,25.2
2017-08-14T02:46:09.015Z,25.2
2017-08-14T02:51:14.414Z,25.2
2017-08-14T02:56:19.816Z,25.1
2017-08-14T03:01:25.217Z,25.1
2017-08-14T03:06:30.948Z,25.1
2017-08-14T03:11:36.692Z,25.1
2017-08-14T03:16:42.759Z,25.1
2017-08-14T03:21:48.157Z,25.1
2017-08-14T03:26:53.896Z,25.1
2017-08-14T03:31:59.630Z,25.1
2017-08-14T03:37:04.695Z,25.1
2017-08-14T03:42:10.093Z,25.1
2017-08-14T03:47:15.492Z,25.1
2017-08-14T03:52:20.891Z,25.1
2017-08-14T03:57:26.962Z,25
2017-08-14T04:02:33.034Z,25
2017-08-14T04:07:39.103Z,25
2017-08-14T04:12:44.502Z,25
2017-08-14T04:17:50.575Z,25
2017-08-14T04:22:56.647Z,25
2017-08-14T04:28:01.715Z,25
2017-08-14T04:33:07.454Z,25
2017-08-14T04:38:12.856Z,25
2017-08-14T04:43:18.927Z,25
2017-08-14T04:48:24.663Z,25
2017-08-14T04:53:30.068Z,25
2017-08-14T04:58:35.468Z,25
2017-08-14T05:03:40.869Z,25
2017-08-14T05:08:46.941Z,25
2017-08-14T05:13:52.678Z,25.1
2017-08-14T05:18:58.416Z,25.1
2017-08-14T05:24:04.492Z,25.1
2017-08-14T05:29:10.232Z,25.1
2017-08-14T05:34:15.972Z,25.1
2017-08-14T05:39:22.044Z,25.2
2017-08-14T05:44:27.446Z,25.2
2017-08-14T05:49:33.522Z,25.2
2017-08-14T05:54:39.262Z,25.3
2017-08-14T05:59:44.667Z,25.3
2017-08-14T06:04:50.410Z,25.3
2017-08-14T06:09:56.149Z,25.4
2017-08-14T06:15:01.890Z,25.4
2017-08-14T06:20:07.297Z,25.4
2017-08-14T06:25:12.703Z,25.4
2017-08-14T06:30:18.444Z,25.5
2017-08-14T06:35:24.193Z,25.5
2017-08-14T06:40:29.938Z,25.6
2017-08-14T06:45:35.680Z,25.6
2017-08-14T06:50:41.088Z,25.6
2017-08-14T06:55:46.846Z,25.7
2017-08-14T07:00:52.258Z,25.7
2017-08-14T07:05:58.033Z,25.8
2017-08-14T07:11:03.791Z,25.8
2017-08-14T07:16:09.529Z,25.9
2017-08-14T07:21:15.617Z,25.9
2017-08-14T07:26:21.361Z,26
2017-08-14T07:31:27.440Z,26
2017-08-14T07:36:33.181Z,26.1
2017-08-14T07:41:38.594Z,26.2
2017-08-14T07:46:43.683Z,26.3
2017-08-14T07:51:49.099Z,26.4
2017-08-14T07:56:54.844Z,26.6
2017-08-14T08:02:00.613Z,26.8
2017-08-14T08:07:06.373Z,27.1
2017-08-14T08:12:12.474Z,27.3
2017-08-14T08:17:17.918Z,27.6
2017-08-14T08:22:22.999Z,27.9
2017-08-14T08:27:28.758Z,28.2
2017-08-14T08:32:33.848Z,28.5
2017-08-14T08:37:38.938Z,28.8
2017-08-14T08:42:44.032Z,29.1
2017-08-14T08:47:50.348Z,29.3
2017-08-14T08:52:56.121Z,29.5
2017-08-14T08:58:02.222Z,29.5
2017-08-14T09:03:07.317Z,29.5
2017-08-14T09:08:13.086Z,29.2
2017-08-14T09:13:18.534Z,29.1
2017-08-14T09:18:24.632Z,29.2
2017-08-14T09:23:30.065Z,29.1
2017-08-14T09:28:36.168Z,29.1
2017-08-14T09:33:41.604Z,29
2017-08-14T09:38:47.704Z,29.1
2017-08-14T09:43:53.473Z,29.1
2017-08-14T09:48:59.575Z,29.2
2017-08-14T09:54:05.002Z,29.2
2017-08-14T09:59:10.766Z,29.2
2017-08-14T10:04:16.540Z,29.2
2017-08-14T10:09:22.332Z,29.2
2017-08-14T10:14:27.757Z,29
2017-08-14T10:19:33.186Z,28.8
2017-08-14T10:24:38.608Z,28.6
2017-08-14T10:29:44.364Z,28.4
2017-08-14T10:34:50.122Z,28.1
2017-08-14T10:39:55.569Z,27.9
2017-08-14T10:45:01.679Z,27.7
2017-08-14T10:50:06.765Z,27.6
2017-08-14T10:55:12.180Z,27.5
2017-08-14T11:00:17.797Z,27.4
2017-08-14T11:05:23.757Z,27.3
2017-08-14T11:10:29.510Z,27.2
2017-08-14T11:15:35.252Z,27.1
2017-08-14T11:20:40.332Z,27.1
2017-08-14T11:25:45.410Z,27
2017-08-14T11:30:50.483Z,27
2017-08-14T11:35:56.229Z,27
2017-08-14T11:41:01.305Z,27
2017-08-14T11:46:06.381Z,27
2017-08-14T11:51:11.790Z,27
2017-08-14T11:56:16.870Z,27
2017-08-14T12:01:22.283Z,27
2017-08-14T12:06:28.034Z,27
2017-08-14T12:11:34.116Z,27
2017-08-14T12:16:39.863Z,27
2017-08-14T12:21:45.277Z,27
2017-08-14T12:26:49.685Z,27
2017-08-14T12:31:55.094Z,26.9
2017-08-14T12:37:01.177Z,27
2017-08-14T12:42:06.590Z,27
2017-08-14T12:47:10.993Z,26.9
2017-08-14T12:52:16.402Z,26.9
2017-08-14T12:57:21.480Z,26.9
2017-08-14T13:02:26.889Z,26.9
2017-08-14T13:07:31.963Z,26.9
2017-08-14T13:12:37.710Z,26.9
2017-08-14T13:17:43.125Z,26.9
2017-08-14T13:22:49.224Z,26.9
2017-08-14T13:27:54.973Z,26.9
2017-08-14T13:33:01.049Z,26.9
2017-08-14T13:38:06.796Z,26.9
2017-08-14T13:43:12.206Z,26.9
2017-08-14T13:48:17.952Z,26.9
2017-08-14T13:53:23.361Z,26.9
2017-08-14T13:58:28.872Z,26.9
2017-08-14T14:03:34.901Z,26.9
2017-08-14T14:08:40.647Z,26.9
2017-08-14T14:13:46.756Z,26.9
2017-08-14T14:18:52.166Z,26.8
2017-08-14T14:23:58.241Z,26.8
2017-08-14T14:29:03.327Z,26.8
2017-08-14T14:34:08.740Z,26.8
2017-08-14T14:39:13.488Z,26.8
2017-08-14T14:44:19.232Z,26.8
2017-08-14T14:49:24.305Z,26.8
2017-08-14T14:54:29.384Z,26.8
2017-08-14T14:59:34.798Z,26.8
2017-08-14T15:04:40.546Z,26.8
2017-08-14T15:09:45.971Z,26.8
2017-08-14T15:14:51.371Z,26.8
2017-08-14T15:19:57.120Z,26.8
2017-08-14T15:25:03.203Z,26.8
2017-08-14T15:30:09.278Z,26.9
2017-08-14T15:35:15.022Z,26.9
2017-08-14T15:40:20.763Z,26.9
2017-08-14T15:45:26.176Z,26.8
2017-08-14T15:50:31.921Z,26.8
2017-08-14T15:55:36.995Z,26.8
2017-08-14T16:00:42.738Z,26.8
2017-08-14T16:05:48.160Z,26.8
2017-08-14T16:10:53.571Z,26.8
2017-08-14T16:15:59.649Z,26.8
2017-08-14T16:21:05.058Z,26.8
2017-08-14T16:26:10.801Z,26.8
2017-08-14T16:31:16.213Z,26.8
2017-08-14T16:36:21.958Z,26.8
2017-08-14T16:41:27.702Z,26.8
2017-08-14T16:46:32.776Z,26.8
2017-08-14T16:51:38.519Z,26.8
2017-08-14T16:56:43.930Z,26.8
2017-08-14T17:01:49.337Z,26.8
2017-08-14T17:06:54.761Z,26.8
2017-08-14T17:12:00.505Z,26.7
2017-08-14T17:17:05.918Z,26.7
2017-08-14T17:22:10.324Z,26.8
2017-08-14T17:27:15.411Z,26.7
2017-08-14T17:32:21.164Z,26.7
2017-08-14T17:37:25.925Z,26.7
2017-08-14T17:42:31.997Z,26.7
2017-08-14T17:47:38.084Z,26.7
2017-08-14T17:52:43.833Z,26.7
2017-08-14T17:57:49.256Z,26.7
2017-08-14T18:02:54.666Z,26.7
2017-08-14T18:08:00.416Z,26.7
2017-08-14T18:13:05.832Z,26.7
2017-08-14T18:18:11.249Z,26.6
2017-08-14T18:23:16.662Z,26.6
2017-08-14T18:28:22.076Z,26.6
2017-08-14T18:33:26.818Z,26.6
2017-08-14T18:38:32.567Z,26.6
2017-08-14T18:43:37.978Z,26.6
2017-08-14T18:48:44.060Z,26.6
2017-08-14T18:53:49.143Z,26.5
2017-08-14T18:58:54.561Z,26.5
2017-08-14T19:03:59.981Z,26.5
2017-08-14T19:09:10.310Z,26.5
2017-08-14T19:14:23.299Z,26.5
2017-08-14T19:19:28.377Z,26.5
2017-08-14T19:24:33.788Z,26.5
2017-08-14T19:29:39.535Z,26.5
2017-08-14T19:34:45.285Z,26.5
2017-08-14T19:39:51.059Z,26.5
2017-08-14T19:44:56.138Z,26.4
2017-08-14T19:50:01.893Z,26.4
2017-08-14T19:55:07.300Z,26.4
2017-08-14T20:00:13.082Z,26.4
2017-08-14T20:05:18.827Z,26.4
2017-08-14T20:10:24.581Z,26.4
2017-08-14T20:15:29.324Z,26.4
2017-08-14T20:20:35.130Z,26.4
2017-08-14T20:25:41.217Z,26.4
2017-08-14T20:30:46.633Z,26.4
2017-08-14T20:35:51.711Z,26.4
2017-08-14T20:40:57.474Z,26.4
2017-08-14T20:46:03.222Z,26.4
2017-08-14T20:51:08.972Z,26.4
2017-08-14T20:56:14.270Z,26.4
2017-08-14T21:01:20.043Z,26.4
2017-08-14T21:06:25.793Z,26.4
2017-08-14T21:11:31.219Z,26.4
2017-08-14T21:16:36.967Z,26.4
2017-08-14T21:21:42.055Z,26.4
2017-08-14T21:26:47.466Z,26.4
2017-08-14T21:31:52.886Z,26.4
2017-08-14T21:36:58.633Z,26.4
2017-08-14T21:42:04.375Z,26.4
2017-08-14T21:47:10.127Z,26.4
2017-08-14T21:52:14.863Z,26.4
2017-08-14T21:57:20.269Z,26.4
2017-08-14T22:02:25.340Z,26.4
2017-08-14T22:07:30.435Z,26.4
2017-08-14T22:12:35.519Z,26.4
2017-08-14T22:17:40.588Z,26.4
2017-08-14T22:22:46.000Z,26.4
2017-08-14T22:27:51.063Z,26.4
2017-08-14T22:32:55.464Z,26.4
2017-08-14T22:38:01.544Z,26.4
2017-08-14T22:43:07.619Z,26.4
2017-08-14T22:48:12.696Z,26.3
2017-08-14T22:53:18.437Z,26.4
2017-08-14T22:58:24.173Z,26.3
2017-08-14T23:03:30.249Z,26.3
2017-08-14T23:08:35.989Z,26.3
2017-08-14T23:13:41.733Z,26.3
2017-08-14T23:18:47.474Z,26.3
2017-08-14T23:23:52.209Z,26.3
2017-08-14T23:28:57.281Z,26.3
2017-08-14T23:34:03.356Z,26.3
2017-08-14T23:39:09.098Z,26.3
2017-08-14T23:44:14.841Z,26.3
2017-08-14T23:49:20.583Z,26.3
2017-08-14T23:54:26.660Z,26.3
2017-08-14T23:59:32.732Z,26.3
